createdAt,value
2018-05-11T00:02:52.037Z,12.68
2018-05-11T00:05:55.353Z,12.67
2018-05-11T00:08:59.445Z,12.64
2018-05-11T00:12:02.749Z,12.60
2018-05-11T00:15:06.841Z,12.58
2018-05-11T00:18:10.144Z,12.60
2018-05-11T00:21:13.470Z,12.59
2018-05-11T00:24:17.570Z,12.58
2018-05-11T00:27:20.877Z,12.59
2018-05-11T00:30:24.966Z,12.56
2018-05-11T00:33:28.294Z,12.53
2018-05-11T00:36:32.393Z,12.50
2018-05-11T00:39:36.490Z,12.49
2018-05-11T00:42:39.806Z,12.49
2018-05-11T00:45:43.145Z,12.45
2018-05-11T00:48:46.454Z,12.47
2018-05-11T00:51:49.778Z,12.45
2018-05-11T00:54:53.093Z,12.47
2018-05-11T00:57:56.417Z,12.48
2018-05-11T01:00:59.740Z,12.45
2018-05-11T01:04:03.047Z,12.47
2018-05-11T01:07:06.370Z,12.48
2018-05-11T01:10:09.728Z,12.46
2018-05-11T01:13:13.032Z,12.46
2018-05-11T01:16:16.404Z,12.45
2018-05-11T01:19:19.693Z,12.46
2018-05-11T01:22:23.018Z,12.45
2018-05-11T01:25:26.317Z,12.43
2018-05-11T01:28:29.638Z,12.40
2018-05-11T01:31:32.937Z,12.40
2018-05-11T01:34:36.258Z,12.38
2018-05-11T01:37:40.349Z,12.37
2018-05-11T01:40:43.674Z,12.41
2018-05-11T01:43:47.765Z,12.39
2018-05-11T01:46:51.080Z,12.39
2018-05-11T01:49:55.166Z,12.38
2018-05-11T01:52:58.494Z,12.39
2018-05-11T01:56:02.571Z,12.38
2018-05-11T01:59:05.897Z,12.38
2018-05-11T02:02:09.196Z,12.41
2018-05-11T02:05:13.293Z,12.36
2018-05-11T02:08:16.617Z,12.37
2018-05-11T02:11:20.702Z,12.37
2018-05-11T02:14:28.063Z,12.41
2018-05-11T02:17:31.597Z,12.43
2018-05-11T02:20:36.383Z,12.41
2018-05-11T02:23:40.801Z,12.39
2018-05-11T02:26:44.300Z,12.37
2018-05-11T02:29:47.704Z,12.39
2018-05-11T02:32:51.129Z,12.38
2018-05-11T02:35:54.608Z,12.40
2018-05-11T02:38:58.128Z,12.42
2018-05-11T02:42:02.567Z,12.42
2018-05-11T02:45:06.200Z,12.37
2018-05-11T02:48:09.595Z,12.36
2018-05-11T02:51:13.697Z,12.39
2018-05-11T02:54:17.002Z,12.37
2018-05-11T02:57:21.085Z,12.43
2018-05-11T03:00:24.411Z,12.41
2018-05-11T03:03:27.718Z,12.39
2018-05-11T03:06:31.821Z,12.39
2018-05-11T03:09:35.142Z,12.40
2018-05-11T03:12:38.499Z,12.35
2018-05-11T03:15:41.806Z,12.35
2018-05-11T03:18:45.253Z,12.38
2018-05-11T03:21:48.485Z,12.38
2018-05-11T03:24:51.793Z,12.40
2018-05-11T03:27:55.113Z,12.40
2018-05-11T03:30:59.186Z,12.38
2018-05-11T03:34:02.509Z,12.39
2018-05-11T03:37:05.825Z,12.40
2018-05-11T03:40:09.157Z,12.39
2018-05-11T03:43:12.508Z,12.38
2018-05-11T03:46:16.578Z,12.37
2018-05-11T03:49:19.917Z,12.37
2018-05-11T03:52:23.989Z,12.40
2018-05-11T03:55:27.314Z,12.42
2018-05-11T03:58:30.626Z,12.40
2018-05-11T04:01:52.362Z,12.39
2018-05-11T04:05:14.080Z,12.39
2018-05-11T04:08:36.016Z,12.41
2018-05-11T04:11:40.112Z,12.40
2018-05-11T04:14:43.437Z,12.43
2018-05-11T04:17:47.518Z,12.44
2018-05-11T04:20:50.919Z,12.47
2018-05-11T04:23:54.164Z,12.45
2018-05-11T04:26:57.493Z,12.47
2018-05-11T04:30:00.801Z,12.48
2018-05-11T04:33:04.157Z,12.50
2018-05-11T04:36:07.467Z,12.47
2018-05-11T04:39:10.786Z,12.46
2018-05-11T04:42:14.109Z,12.46
2018-05-11T04:45:17.434Z,12.46
2018-05-11T04:48:20.750Z,12.48
2018-05-11T04:51:24.073Z,12.49
2018-05-11T04:54:27.392Z,12.50
2018-05-11T04:57:30.697Z,12.50
2018-05-11T05:00:34.785Z,12.46
2018-05-11T05:03:38.121Z,12.41
2018-05-11T05:06:42.215Z,12.32
2018-05-11T05:09:45.606Z,12.24
2018-05-11T05:12:48.909Z,12.22
2018-05-11T05:15:52.229Z,12.20
2018-05-11T05:18:55.553Z,12.19
2018-05-11T05:21:58.877Z,12.24
2018-05-11T05:25:02.185Z,12.29
2018-05-11T05:28:05.519Z,12.34
2018-05-11T05:31:08.865Z,12.44
2018-05-11T05:34:12.161Z,12.51
2018-05-11T05:37:15.480Z,12.57
2018-05-11T05:40:18.785Z,12.65
2018-05-11T05:43:22.873Z,12.73
2018-05-11T05:46:26.181Z,12.77
2018-05-11T05:49:29.497Z,12.78
2018-05-11T05:52:33.569Z,12.83
2018-05-11T05:55:36.887Z,12.96
2018-05-11T05:58:40.220Z,12.97
2018-05-11T06:01:43.527Z,12.97
2018-05-11T06:04:46.850Z,13.02
2018-05-11T06:07:50.149Z,13.06
2018-05-11T06:10:53.559Z,13.06
2018-05-11T06:13:56.821Z,13.09
2018-05-11T06:17:00.149Z,13.16
2018-05-11T06:20:03.462Z,13.24
2018-05-11T06:23:06.784Z,13.31
2018-05-11T06:26:10.893Z,13.35
2018-05-11T06:29:14.965Z,13.36
2018-05-11T06:32:18.290Z,13.36
2018-05-11T06:35:21.593Z,13.41
2018-05-11T06:38:25.681Z,13.47
2018-05-11T06:41:28.985Z,13.53
2018-05-11T06:44:32.309Z,13.57
2018-05-11T06:47:36.419Z,13.69
2018-05-11T06:50:40.485Z,13.71
2018-05-11T06:53:43.801Z,13.73
2018-05-11T06:56:47.100Z,13.77
2018-05-11T06:59:50.425Z,13.83
2018-05-11T07:02:54.501Z,13.89
2018-05-11T07:05:57.821Z,13.95
2018-05-11T07:09:01.126Z,14.00
2018-05-11T07:12:05.209Z,14.09
2018-05-11T07:15:08.541Z,14.07
2018-05-11T07:18:12.633Z,14.12
2018-05-11T07:21:15.966Z,14.20
2018-05-11T07:24:19.275Z,14.28
2018-05-11T07:27:22.597Z,14.44
2018-05-11T07:30:25.900Z,14.57
2018-05-11T07:33:29.229Z,14.68
2018-05-11T07:36:32.529Z,14.76
2018-05-11T07:39:35.885Z,14.82
2018-05-11T07:42:39.183Z,14.94
2018-05-11T07:45:42.502Z,15.08
2018-05-11T07:48:45.806Z,15.12
2018-05-11T07:51:49.133Z,15.14
2018-05-11T07:54:53.218Z,15.18
2018-05-11T07:57:56.516Z,15.24
2018-05-11T08:00:59.838Z,15.40
2018-05-11T08:04:03.986Z,15.44
2018-05-11T08:07:07.235Z,15.43
2018-05-11T08:10:11.325Z,15.42
2018-05-11T08:13:14.625Z,15.57
2018-05-11T08:16:17.949Z,15.58
2018-05-11T08:19:22.021Z,15.72
2018-05-11T08:22:25.344Z,15.87
2018-05-11T08:25:28.649Z,16.00
2018-05-11T08:28:32.729Z,16.04
2018-05-11T08:31:36.049Z,16.13
2018-05-11T08:34:39.348Z,16.25
2018-05-11T08:37:42.670Z,16.25
2018-05-11T08:40:46.790Z,16.33
2018-05-11T08:43:50.118Z,16.38
2018-05-11T08:46:53.426Z,16.37
2018-05-11T08:49:56.765Z,16.44
2018-05-11T08:53:00.828Z,16.60
2018-05-11T08:56:04.149Z,16.66
2018-05-11T08:59:07.455Z,16.76
2018-05-11T09:02:10.778Z,16.88
2018-05-11T09:05:14.869Z,16.95
2018-05-11T09:08:18.262Z,16.88
2018-05-11T09:11:21.516Z,16.74
2018-05-11T09:14:24.813Z,16.79
2018-05-11T09:17:28.136Z,16.90
2018-05-11T09:20:31.441Z,17.08
2018-05-11T09:23:34.764Z,17.27
2018-05-11T09:26:38.837Z,17.38
2018-05-11T09:29:42.157Z,17.48
2018-05-11T09:32:45.481Z,17.45
2018-05-11T09:35:48.805Z,17.32
2018-05-11T09:38:52.117Z,17.24
2018-05-11T09:41:55.437Z,17.19
2018-05-11T09:44:58.761Z,17.29
2018-05-11T09:48:02.832Z,17.44
2018-05-11T09:51:06.155Z,17.49
2018-05-11T09:54:09.485Z,17.54
2018-05-11T09:57:12.813Z,17.72
2018-05-11T10:00:30.745Z,17.81
2018-05-11T10:03:34.053Z,17.81
2018-05-11T10:06:37.377Z,17.82
2018-05-11T10:09:40.686Z,17.78
2018-05-11T10:12:44.781Z,17.97
2018-05-11T10:15:48.085Z,17.95
2018-05-11T10:18:51.405Z,18.00
2018-05-11T10:21:55.489Z,17.93
2018-05-11T10:24:58.818Z,17.86
2018-05-11T10:28:02.909Z,17.93
2018-05-11T10:31:06.222Z,17.82
2018-05-11T10:34:10.328Z,17.83
2018-05-11T10:37:14.404Z,17.80
2018-05-11T10:40:17.724Z,17.83
2018-05-11T10:43:21.050Z,18.07
2018-05-11T10:46:24.378Z,18.26
2018-05-11T10:49:27.708Z,18.42
2018-05-11T10:52:31.008Z,18.46
2018-05-11T10:55:34.329Z,18.30
2018-05-11T10:58:38.397Z,18.16
2018-05-11T11:01:41.712Z,18.21
2018-05-11T11:04:45.017Z,18.17
2018-05-11T11:07:48.336Z,18.14
2018-05-11T11:10:52.406Z,18.12
2018-05-11T11:13:55.736Z,18.05
2018-05-11T11:16:59.041Z,17.91
2018-05-11T11:20:03.221Z,17.82
2018-05-11T11:23:06.460Z,17.67
2018-05-11T11:26:10.529Z,17.61
2018-05-11T11:29:13.841Z,17.56
2018-05-11T11:32:17.145Z,17.63
2018-05-11T11:35:20.487Z,17.63
2018-05-11T11:38:23.793Z,17.74
2018-05-11T11:41:27.113Z,17.83
2018-05-11T11:44:30.414Z,17.95
2018-05-11T11:47:33.831Z,18.03
2018-05-11T11:50:37.068Z,18.12
2018-05-11T11:53:40.393Z,18.10
2018-05-11T11:56:43.693Z,18.03
2018-05-11T11:59:47.013Z,18.11
2018-05-11T12:02:50.309Z,18.19
2018-05-11T12:05:53.633Z,18.33
2018-05-11T12:08:57.005Z,18.58
2018-05-11T12:12:00.268Z,18.80
2018-05-11T12:15:03.567Z,19.02
2018-05-11T12:18:06.893Z,19.12
2018-05-11T12:21:10.193Z,19.17
2018-05-11T12:24:13.513Z,19.11
2018-05-11T12:27:16.816Z,19.04
2018-05-11T12:30:20.133Z,18.98
2018-05-11T12:33:23.453Z,19.07
2018-05-11T12:36:26.773Z,19.05
2018-05-11T12:39:30.069Z,18.92
2018-05-11T12:42:33.393Z,18.86
2018-05-11T12:45:36.708Z,19.05
2018-05-11T12:48:40.007Z,19.03
2018-05-11T12:51:43.329Z,19.06
2018-05-11T12:54:46.629Z,18.90
2018-05-11T12:57:49.941Z,18.75
2018-05-11T13:00:53.268Z,18.62
2018-05-11T13:03:56.588Z,18.50
2018-05-11T13:06:59.890Z,18.43
2018-05-11T13:10:03.208Z,18.40
2018-05-11T13:13:06.517Z,18.33
2018-05-11T13:16:09.837Z,18.33
2018-05-11T13:19:13.175Z,18.27
2018-05-11T13:22:16.493Z,18.14
2018-05-11T13:25:19.796Z,18.21
2018-05-11T13:28:23.109Z,18.36
2018-05-11T13:31:26.421Z,18.63
2018-05-11T13:34:30.489Z,18.82
2018-05-11T13:37:33.812Z,18.92
2018-05-11T13:40:37.109Z,18.98
2018-05-11T13:43:40.425Z,19.09
2018-05-11T13:46:44.545Z,19.10
2018-05-11T13:49:48.621Z,19.14
2018-05-11T13:52:51.959Z,19.13
2018-05-11T13:55:55.260Z,19.09
2018-05-11T13:58:58.586Z,19.15
2018-05-11T14:02:01.881Z,19.07
2018-05-11T14:05:05.202Z,18.86
2018-05-11T14:08:08.501Z,18.90
2018-05-11T14:11:11.850Z,18.90
2018-05-11T14:14:15.153Z,18.87
2018-05-11T14:17:18.480Z,18.96
2018-05-11T14:20:21.808Z,19.04
2018-05-11T14:23:25.133Z,19.09
2018-05-11T14:26:28.463Z,19.23
2018-05-11T14:29:31.761Z,19.38
2018-05-11T14:32:35.078Z,19.42
2018-05-11T14:35:38.383Z,19.55
2018-05-11T14:38:41.744Z,19.59
2018-05-11T14:41:45.046Z,19.64
2018-05-11T14:44:48.357Z,19.58
2018-05-11T14:47:51.657Z,19.61
2018-05-11T14:50:54.981Z,19.79
2018-05-11T14:53:59.112Z,20.03
2018-05-11T14:57:02.383Z,20.13
2018-05-11T15:00:05.702Z,20.18
2018-05-11T15:03:09.780Z,20.20
2018-05-11T15:06:13.097Z,20.38
2018-05-11T15:09:17.214Z,20.62
2018-05-11T15:12:21.277Z,20.85
2018-05-11T15:15:24.680Z,20.67
2018-05-11T15:18:27.910Z,20.83
2018-05-11T15:21:31.228Z,20.88
2018-05-11T15:24:35.313Z,21.24
2018-05-11T15:27:38.634Z,21.59
2018-05-11T15:30:42.706Z,21.91
2018-05-11T15:33:46.029Z,22.24
2018-05-11T15:36:49.333Z,22.36
2018-05-11T15:39:53.429Z,22.30
2018-05-11T15:42:56.737Z,22.23
2018-05-11T15:46:00.062Z,22.23
2018-05-11T15:49:03.386Z,22.12
2018-05-11T15:52:06.729Z,22.25
2018-05-11T15:55:10.033Z,22.32
2018-05-11T15:58:14.122Z,22.19
2018-05-11T16:01:17.429Z,22.14
2018-05-11T16:04:20.746Z,22.10
2018-05-11T16:07:24.819Z,21.91
2018-05-11T16:10:28.137Z,21.76
2018-05-11T16:13:31.462Z,21.33
2018-05-11T16:16:35.529Z,21.06
2018-05-11T16:19:38.852Z,20.65
2018-05-11T16:22:42.934Z,20.41
2018-05-11T16:25:46.258Z,20.18
2018-05-11T16:28:49.553Z,19.94
2018-05-11T16:31:52.878Z,19.80
2018-05-11T16:34:56.183Z,19.66
2018-05-11T16:37:59.497Z,19.52
2018-05-11T16:41:02.825Z,19.43
2018-05-11T16:44:06.138Z,19.33
2018-05-11T16:47:09.468Z,19.18
2018-05-11T16:50:12.767Z,19.06
2018-05-11T16:53:16.093Z,18.96
2018-05-11T16:56:19.397Z,18.80
2018-05-11T16:59:22.725Z,18.69
2018-05-11T17:02:26.025Z,18.67
2018-05-11T17:05:30.118Z,18.64
2018-05-11T17:08:33.426Z,18.63
2018-05-11T17:11:36.754Z,18.59
2018-05-11T17:14:40.062Z,18.52
2018-05-11T17:17:43.385Z,18.47
2018-05-11T17:20:46.727Z,18.37
2018-05-11T17:23:50.793Z,18.27
2018-05-11T17:26:54.113Z,18.17
2018-05-11T17:29:57.453Z,18.04
2018-05-11T17:33:00.769Z,17.92
2018-05-11T17:36:04.091Z,17.79
2018-05-11T17:39:07.418Z,17.72
2018-05-11T17:42:10.745Z,17.66
2018-05-11T17:45:14.069Z,17.59
2018-05-11T17:48:17.380Z,17.53
2018-05-11T17:51:20.700Z,17.44
2018-05-11T17:54:24.023Z,17.41
2018-05-11T17:57:28.099Z,17.36
2018-05-11T18:00:31.426Z,17.34
2018-05-11T18:03:35.509Z,17.26
2018-05-11T18:06:38.822Z,17.20
2018-05-11T18:09:42.151Z,17.17
2018-05-11T18:12:45.469Z,17.07
2018-05-11T18:15:48.798Z,16.96
2018-05-11T18:18:52.108Z,16.86
2018-05-11T18:21:55.432Z,16.76
2018-05-11T18:24:58.746Z,16.68
2018-05-11T18:28:02.060Z,16.60
2018-05-11T18:31:05.413Z,16.52
2018-05-11T18:34:09.480Z,16.47
2018-05-11T18:37:12.786Z,16.40
2018-05-11T18:40:16.121Z,16.35
2018-05-11T18:43:20.215Z,16.27
2018-05-11T18:46:24.392Z,16.19
2018-05-11T18:49:27.621Z,16.11
2018-05-11T18:52:30.949Z,16.03
2018-05-11T18:55:35.023Z,15.98
2018-05-11T18:58:38.360Z,15.90
2018-05-11T19:01:41.748Z,15.82
2018-05-11T19:04:45.018Z,15.75
2018-05-11T19:07:48.321Z,15.69
2018-05-11T19:10:51.645Z,15.62
2018-05-11T19:13:54.969Z,15.54
2018-05-11T19:16:58.297Z,15.47
2018-05-11T19:20:01.612Z,15.41
2018-05-11T19:23:04.974Z,15.35
2018-05-11T19:26:08.316Z,15.31
2018-05-11T19:29:11.597Z,15.25
2018-05-11T19:32:14.922Z,15.20
2018-05-11T19:35:19.064Z,15.13
2018-05-11T19:38:22.331Z,15.09
2018-05-11T19:41:26.405Z,15.03
2018-05-11T19:44:29.737Z,14.98
2018-05-11T19:47:33.819Z,14.93
2018-05-11T19:50:37.149Z,14.88
2018-05-11T19:53:41.244Z,14.84
2018-05-11T19:56:44.548Z,14.79
2018-05-11T19:59:48.650Z,14.77
2018-05-11T20:02:51.965Z,14.73
2018-05-11T20:05:56.055Z,14.67
2018-05-11T20:08:59.357Z,14.59
2018-05-11T20:12:02.685Z,14.58
2018-05-11T20:15:06.759Z,14.49
2018-05-11T20:18:10.092Z,14.41
2018-05-11T20:21:14.198Z,14.35
2018-05-11T20:24:18.273Z,14.33
2018-05-11T20:27:21.601Z,14.26
2018-05-11T20:30:25.689Z,14.22
2018-05-11T20:33:29.017Z,14.17
2018-05-11T20:36:33.094Z,14.13
2018-05-11T20:39:36.419Z,14.07
2018-05-11T20:42:39.733Z,14.02
2018-05-11T20:45:43.829Z,13.99
2018-05-11T20:48:47.133Z,13.97
2018-05-11T20:51:51.229Z,13.92
2018-05-11T20:54:54.542Z,13.83
2018-05-11T20:57:57.853Z,13.76
2018-05-11T21:01:01.959Z,13.70
2018-05-11T21:04:06.029Z,13.64
2018-05-11T21:07:09.346Z,13.56
2018-05-11T21:10:12.656Z,13.51
2018-05-11T21:13:15.990Z,13.47
2018-05-11T21:16:19.317Z,13.42
2018-05-11T21:19:22.627Z,13.37
2018-05-11T21:22:25.966Z,13.34
2018-05-11T21:25:30.033Z,13.28
2018-05-11T21:28:33.357Z,13.22
2018-05-11T21:31:36.669Z,13.19
2018-05-11T21:34:40.757Z,13.17
2018-05-11T21:37:44.086Z,13.10
2018-05-11T21:40:48.256Z,13.06
2018-05-11T21:43:51.497Z,13.00
2018-05-11T21:46:55.585Z,12.95
2018-05-11T21:49:58.892Z,12.92
2018-05-11T21:53:02.981Z,12.88
2018-05-11T21:56:06.312Z,12.85
2018-05-11T21:59:10.384Z,12.82
2018-05-11T22:02:13.710Z,12.79
2018-05-11T22:05:17.018Z,12.77
2018-05-11T22:08:21.114Z,12.78
2018-05-11T22:11:24.417Z,12.81
2018-05-11T22:14:27.740Z,12.84
2018-05-11T22:17:31.061Z,12.87
2018-05-11T22:20:34.365Z,12.88
2018-05-11T22:23:37.693Z,12.90
2018-05-11T22:26:41.009Z,12.94
2018-05-11T22:29:45.101Z,12.98
2018-05-11T22:32:48.420Z,13.01
2018-05-11T22:35:52.511Z,13.01
2018-05-11T22:38:55.844Z,13.00
2018-05-11T22:41:59.938Z,13.02
2018-05-11T22:45:03.253Z,12.94
2018-05-11T22:48:06.577Z,12.94
2018-05-11T22:51:09.897Z,12.95
2018-05-11T22:54:13.209Z,12.94
2018-05-11T22:57:16.541Z,12.94
2018-05-11T23:03:54.237Z,13.07
2018-05-11T23:06:57.556Z,13.04
2018-05-11T23:10:01.703Z,13.03
2018-05-11T23:13:04.965Z,13.05
2018-05-11T23:16:09.041Z,13.10
2018-05-11T23:19:12.370Z,13.16
2018-05-11T23:22:16.465Z,13.18
2018-05-11T23:25:19.769Z,13.21
2018-05-11T23:28:23.094Z,13.25
2018-05-11T23:31:26.405Z,13.24
2018-05-11T23:34:29.721Z,13.32
2018-05-11T23:37:33.038Z,13.37
2018-05-11T23:40:36.388Z,13.38
2018-05-11T23:43:39.702Z,13.31
2018-05-11T23:46:43.025Z,13.31
2018-05-11T23:49:46.339Z,13.33
2018-05-11T23:52:49.685Z,13.29
2018-05-11T23:55:53.000Z,13.23
2018-05-11T23:58:56.301Z,13.23
